Time;durP1;ratioP1;P1;durP2;ratioP2;P2;SDS_P1;SDS_P2;PMS_P1;PMS_P2;Temp;Humidity;BMP_temperature;BMP_pressure;BME280_temperature;BME280_humidity;BME280_pressure;Samples;Min_cycle;Max_cycle;Signal;HPM_P1;HPM_P2
2021/06/02 04:15:36;;;;;;;7.20;4.70;;;;;;;7.75;82.53;98703.25;5901639;23;20453;-71
2021/06/02 04:18:03;;;;;;;5.00;4.10;;;;;;;7.77;82.67;98697.19;4993137;28;20695;-70
2021/06/02 04:20:28;;;;;;;4.35;3.85;;;;;;;7.80;82.51;98697.19;4993100;28;20026;-71
2021/06/02 04:22:56;;;;;;;5.88;4.45;;;;;;;7.85;82.11;98690.25;4992990;28;20105;-71
2021/06/02 04:25:21;;;;;;;5.68;4.07;;;;;;;8.10;81.33;98695.19;4992872;28;20069;-71
2021/06/02 04:27:48;;;;;;;4.47;4.07;;;;;;;8.18;80.87;98698.56;4992845;28;20430;-71
2021/06/02 04:30:17;;;;;;;4.85;4.35;;;;;;;8.25;80.59;98701.06;5030559;23;20038;-72
2021/06/02 04:32:45;;;;;;;6.40;4.65;;;;;;;8.27;80.70;98698.50;4948744;28;20065;-72
2021/06/02 04:35:14;;;;;;;5.45;4.60;;;;;;;8.28;80.53;98700.19;4953214;28;20074;-71
2021/06/02 04:37:40;;;;;;;8.18;4.88;;;;;;;8.38;80.29;98707.00;4953393;29;20023;-71
2021/06/02 04:40:07;;;;;;;5.40;4.55;;;;;;;8.41;79.73;98706.97;4953505;28;20074;-71
2021/06/02 04:42:38;;;;;;;5.50;4.40;;;;;;;8.38;79.58;98707.00;4953286;28;20045;-72
2021/06/02 04:45:06;;;;;;;5.65;4.22;;;;;;;8.44;79.36;98712.09;4953363;28;20086;-72
2021/06/02 04:47:35;;;;;;;9.30;4.00;;;;;;;8.43;79.83;98715.53;4953307;28;20078;-72
2021/06/02 04:50:25;;;;;;;7.05;4.60;;;;;;;8.60;79.20;98711.91;4953336;28;20029;-72
2021/06/02 04:53:27;;;;;;;5.88;4.72;;;;;;;8.72;78.69;98717.81;4953295;28;20023;-72
2021/06/02 04:56:11;;;;;;;6.75;4.88;;;;;;;8.80;78.61;98715.16;4953292;28;20047;-72
2021/06/02 04:59:13;;;;;;;5.05;4.43;;;;;;;8.94;78.42;98723.56;4952318;29;20038;-73
2021/06/02 05:01:51;;;;;;;5.88;4.60;;;;;;;8.99;78.13;98726.97;4950456;29;20019;-72
2021/06/02 05:04:50;;;;;;;8.45;5.18;;;;;;;8.92;78.40;98727.06;4953167;28;20037;-73
2021/06/02 05:07:30;;;;;;;5.25;4.65;;;;;;;8.89;78.26;98719.31;4951574;29;20074;-73
2021/06/02 05:10:40;;;;;;;4.97;4.50;;;;;;;9.10;77.75;98721.66;4953123;28;20031;-73
2021/06/02 05:13:14;;;;;;;7.72;4.10;;;;;;;9.27;77.09;98729.19;4950474;29;20436;-73
2021/06/02 05:16:12;;;;;;;5.93;4.20;;;;;;;9.49;76.40;98725.44;4953035;28;20019;-73
2021/06/02 05:19:19;;;;;;;6.32;4.32;;;;;;;9.68;75.76;98722.56;4951762;28;20078;-73
2021/06/02 05:22:07;;;;;;;12.15;4.25;;;;;;;9.79;75.06;98720.66;4953044;29;20019;-73
2021/06/02 05:24:54;;;;;;;5.10;4.30;;;;;;;9.91;74.38;98720.47;4984236;28;20134;-73
2021/06/02 05:28:06;;;;;;;12.20;4.35;;;;;;;10.17;73.65;98722.63;4952875;28;20081;-73
2021/06/02 05:30:44;;;;;;;8.05;4.32;;;;;;;10.22;73.40;98736.34;4951546;29;20027;-73
2021/06/02 05:33:47;;;;;;;5.32;4.63;;;;;;;10.27;72.98;98728.53;4952971;28;20548;-73
2021/06/02 05:36:51;;;;;;;8.52;4.30;;;;;;;10.38;72.68;98726.59;4951071;28;20031;-73
2021/06/02 05:39:36;;;;;;;7.43;3.92;;;;;;;10.62;71.93;98729.63;4952982;28;20071;-73
2021/06/02 05:42:16;;;;;;;13.90;4.55;;;;;;;10.86;71.38;98731.72;4983881;28;20392;-73
2021/06/02 05:45:15;;;;;;;4.65;3.90;;;;;;;11.02;70.33;98735.75;4951726;28;20023;-73
2021/06/02 05:47:59;;;;;;;4.93;4.15;;;;;;;11.12;70.21;98735.50;4953605;28;20031;-73
2021/06/02 05:50:50;;;;;;;6.38;4.90;;;;;;;11.25;70.23;98726.59;4956229;28;20106;-73
2021/06/02 05:53:43;;;;;;;9.18;4.40;;;;;;;11.43;69.83;98731.38;4955029;29;20128;-73
2021/06/02 05:56:36;;;;;;;9.43;4.60;;;;;;;11.56;69.87;98732.84;4956141;29;20110;-73
2021/06/02 05:59:27;;;;;;;11.20;5.30;;;;;;;11.93;69.24;98726.78;4952996;29;20023;-74
2021/06/02 06:02:30;;;;;;;7.68;4.30;;;;;;;12.17;68.29;98724.47;4958173;28;20031;-73
2021/06/02 06:05:23;;;;;;;9.35;4.68;;;;;;;12.54;66.14;98720.03;4940147;28;21586;-73
2021/06/02 06:08:08;;;;;;;7.82;4.15;;;;;;;12.82;66.65;98724.50;4943301;28;20035;-73
2021/06/02 06:11:25;;;;;;;4.75;4.30;;;;;;;13.06;63.91;98713.38;4954158;29;20019;-73
2021/06/02 06:14:02;;;;;;;10.00;4.45;;;;;;;13.21;64.29;98717.28;4950137;28;20031;-73
2021/06/02 06:16:58;;;;;;;5.40;4.15;;;;;;;13.54;62.90;98722.41;4954258;28;20050;-73
2021/06/02 06:19:41;;;;;;;7.43;4.18;;;;;;;13.70;62.68;98720.19;4952469;28;20027;-73
2021/06/02 06:22:12;;;;;;;5.78;4.28;;;;;;;13.77;62.35;98721.66;4953486;28;20546;-73
2021/06/02 06:25:08;;;;;;;8.35;4.22;;;;;;;13.95;61.23;98721.09;4952780;28;20042;-73
2021/06/02 06:27:44;;;;;;;11.40;3.95;;;;;;;13.98;60.96;98726.22;4960540;28;20496;-73
2021/06/02 06:30:15;;;;;;;6.00;4.00;;;;;;;14.30;60.42;98722.50;4950861;28;20035;-73
2021/06/02 06:32:42;;;;;;;10.40;4.05;;;;;;;14.47;59.92;98719.34;4953054;28;20106;-73
2021/06/02 06:35:10;;;;;;;4.57;3.85;;;;;;;14.77;59.86;98721.81;4953253;28;20023;-73
2021/06/02 06:37:44;;;;;;;3.95;3.55;;;;;;;15.26;57.90;98720.84;4951808;29;20074;-75
2021/06/02 06:40:15;;;;;;;7.47;3.85;;;;;;;15.63;58.12;98715.09;4951039;28;20050;-76
2021/06/02 06:42:43;;;;;;;7.75;4.30;;;;;;;15.87;56.36;98715.03;4951097;29;20023;-72
2021/06/02 06:45:12;;;;;;;6.90;4.30;;;;;;;16.55;54.30;98711.28;4952509;28;20459;-72
2021/06/02 06:47:39;;;;;;;6.97;4.07;;;;;;;17.07;53.52;98708.16;4950623;28;20054;-73
2021/06/02 06:50:09;;;;;;;9.40;4.45;;;;;;;17.54;51.92;98708.56;4949037;29;20111;-73
2021/06/02 06:52:36;;;;;;;5.85;3.92;;;;;;;18.95;48.12;98698.88;4954846;28;20384;-73
2021/06/02 06:55:04;;;;;;;4.53;3.22;;;;;;;21.07;43.86;98696.31;4951203;28;20082;-75
2021/06/02 06:57:31;;;;;;;7.95;3.13;;;;;;;23.13;38.55;98689.75;4951129;28;20023;-76
2021/06/02 06:59:57;;;;;;;6.85;2.80;;;;;;;24.39;36.61;98694.66;4949415;28;20047;-74
2021/06/02 07:02:23;;;;;;;4.55;2.88;;;;;;;26.07;33.02;98693.75;4949073;28;20054;-76
2021/06/02 07:04:49;;;;;;;4.10;2.80;;;;;;;25.91;32.02;98703.91;4951950;28;20127;-73
2021/06/02 07:07:15;;;;;;;4.97;2.72;;;;;;;27.14;30.39;98697.94;4948688;28;20031;-76
2021/06/02 07:09:40;;;;;;;4.82;2.80;;;;;;;27.33;29.74;98700.66;4949166;28;20055;-73
2021/06/02 07:12:06;;;;;;;4.60;2.53;;;;;;;27.07;29.04;98699.41;4953624;28;20054;-76
2021/06/02 07:14:34;;;;;;;3.00;2.60;;;;;;;27.10;29.89;98704.50;4952576;28;20396;-76
2021/06/02 07:17:05;;;;;;;5.90;2.38;;;;;;;28.63;27.38;98698.66;4949223;28;20094;-76
2021/06/02 07:19:32;;;;;;;3.80;2.30;;;;;;;28.65;27.67;98699.34;4949967;28;20058;-73
2021/06/02 07:21:59;;;;;;;6.50;2.90;;;;;;;28.11;28.02;98706.13;4901168;28;20040;-73
2021/06/02 07:24:25;;;;;;;3.47;2.25;;;;;;;27.79;27.41;98696.56;4953487;29;20023;-73
2021/06/02 07:26:50;;;;;;;10.40;2.20;;;;;;;29.75;25.44;98691.47;4950608;28;20019;-73
2021/06/02 07:29:16;;;;;;;4.22;2.30;;;;;;;28.58;25.86;98693.78;4952663;28;20038;-73
2021/06/02 07:31:41;;;;;;;6.38;2.58;;;;;;;28.88;26.03;98690.03;4947008;28;20027;-73
2021/06/02 07:34:07;;;;;;;5.38;2.20;;;;;;;30.21;24.66;98673.53;4952503;28;20031;-73
2021/06/02 07:36:33;;;;;;;12.15;2.20;;;;;;;29.76;24.64;98685.13;4950983;29;20023;-73
2021/06/02 07:38:59;;;;;;;4.97;1.90;;;;;;;28.98;25.18;98695.34;4952603;28;20025;-73
2021/06/02 07:41:25;;;;;;;3.03;1.67;;;;;;;30.13;23.38;98686.84;4948992;28;20444;-73
2021/06/02 07:43:50;;;;;;;4.85;1.70;;;;;;;29.91;23.26;98688.94;4951174;28;20024;-73
2021/06/02 07:46:16;;;;;;;3.97;1.92;;;;;;;30.49;23.11;98687.63;4952965;29;20420;-73
2021/06/02 07:48:41;;;;;;;2.47;1.52;;;;;;;27.77;25.98;98692.38;4948400;28;20019;-73
2021/06/02 07:51:06;;;;;;;3.13;1.35;;;;;;;28.99;24.54;98698.88;4950129;29;20027;-73
2021/06/02 07:53:32;;;;;;;3.22;1.67;;;;;;;31.46;21.65;98684.66;4951734;28;20021;-73
2021/06/02 07:55:57;;;;;;;3.47;1.60;;;;;;;29.37;24.04;98701.34;4950860;28;20023;-73
2021/06/02 07:58:23;;;;;;;2.35;1.85;;;;;;;29.44;24.19;98702.44;4948722;28;20024;-73
2021/06/02 08:00:48;;;;;;;4.40;1.60;;;;;;;32.11;22.26;98691.19;4952683;28;20035;-73
2021/06/02 08:03:13;;;;;;;5.78;1.70;;;;;;;31.61;22.06;98689.38;4948187;28;20050;-76
2021/06/02 08:05:39;;;;;;;4.22;1.60;;;;;;;26.17;28.11;98694.66;4948178;28;20023;-77
2021/06/02 08:08:04;;;;;;;2.58;1.40;;;;;;;28.57;25.65;98685.88;4974249;28;20556;-77
2021/06/02 08:10:30;;;;;;;2.03;1.52;;;;;;;31.79;22.50;98676.69;4952234;28;20038;-74
2021/06/02 08:12:55;;;;;;;4.93;1.77;;;;;;;32.37;21.22;98683.81;4952946;28;20488;-77
2021/06/02 08:15:20;;;;;;;4.22;1.75;;;;;;;32.39;21.33;98689.84;4952033;28;20483;-77
2021/06/02 08:17:47;;;;;;;4.65;1.52;;;;;;;32.92;21.61;98691.13;4953359;29;20023;-77
2021/06/02 08:20:14;;;;;;;5.82;1.60;;;;;;;33.92;19.23;98691.34;4948477;28;20022;-77
2021/06/02 08:22:40;;;;;;;8.50;1.77;;;;;;;34.38;19.51;98688.66;4951787;28;20540;-77
2021/06/02 08:25:11;;;;;;;4.80;1.67;;;;;;;32.41;20.48;98698.56;4953347;28;20031;-77
2021/06/02 08:27:37;;;;;;;3.75;1.42;;;;;;;29.55;22.93;98709.44;4948253;28;20497;-77
2021/06/02 08:30:05;;;;;;;4.05;1.70;;;;;;;31.45;21.29;98696.38;4947280;28;20102;-77
2021/06/02 08:32:31;;;;;;;2.45;1.48;;;;;;;32.57;20.65;98692.34;4954116;28;20476;-76
2021/06/02 08:34:56;;;;;;;2.63;1.40;;;;;;;31.51;20.42;98697.56;4943931;29;20071;-77
2021/06/02 08:37:21;;;;;;;3.60;1.38;;;;;;;32.82;19.96;98695.81;4953012;28;20045;-77
2021/06/02 08:39:47;;;;;;;8.48;5.63;;;;;;;34.25;18.23;98689.28;4948916;28;20019;-77
2021/06/02 08:42:13;;;;;;;4.28;1.50;;;;;;;32.12;20.36;98699.06;4953295;28;20646;-77
2021/06/02 08:44:39;;;;;;;1.50;1.40;;;;;;;32.43;20.17;98687.66;4948559;28;20035;-77
2021/06/02 08:47:05;;;;;;;2.90;1.58;;;;;;;33.54;18.04;98700.31;4952050;28;20024;-77
2021/06/02 08:49:31;;;;;;;3.53;1.63;;;;;;;32.47;19.08;98697.91;4945230;28;20098;-77
2021/06/02 08:52:00;;;;;;;1.58;1.23;;;;;;;34.26;17.09;98695.50;4947451;28;20034;-77
2021/06/02 08:54:25;;;;;;;4.40;1.52;;;;;;;33.95;16.55;98703.63;4946915;28;20027;-77
2021/06/02 08:56:51;;;;;;;3.42;1.35;;;;;;;34.19;17.60;98694.56;4948616;28;20138;-77
2021/06/02 08:59:17;;;;;;;3.50;1.27;;;;;;;33.97;16.19;98702.44;4944691;28;20022;-77
2021/06/02 09:01:42;;;;;;;1.80;1.38;;;;;;;33.49;16.93;98704.38;4951290;29;20078;-77
2021/06/02 09:04:09;;;;;;;5.43;1.30;;;;;;;33.40;15.74;98705.38;4953393;28;20019;-76
2021/06/02 09:06:45;;;;;;;3.15;1.15;;;;;;;35.65;13.00;98699.41;4950105;28;20023;-77
2021/06/02 09:09:15;;;;;;;1.95;1.17;;;;;;;32.74;14.36;98703.91;4950089;28;20431;-77
2021/06/02 09:11:51;;;;;;;1.67;1.05;;;;;;;35.41;13.92;98696.00;4952701;28;20512;-77
2021/06/02 09:14:28;;;;;;;3.00;1.75;;;;;;;36.64;13.45;98695.00;4949468;29;20039;-77
2021/06/02 09:16:58;;;;;;;1.25;1.05;;;;;;;36.69;12.05;98700.63;4952483;28;20481;-77
2021/06/02 09:19:50;;;;;;;1.73;1.10;;;;;;;36.12;12.35;98704.31;4949431;28;20565;-76
2021/06/02 09:22:18;;;;;;;1.30;0.90;;;;;;;36.75;11.91;98694.47;4954684;28;20492;-77
2021/06/02 09:24:57;;;;;;;1.38;0.98;;;;;;;36.91;12.03;98690.63;4950829;28;20389;-77
2021/06/02 09:27:57;;;;;;;4.18;1.00;;;;;;;36.20;12.33;98695.22;4952343;28;20117;-77
2021/06/02 09:30:31;;;;;;;1.25;1.15;;;;;;;37.42;12.52;98694.84;4950989;28;20023;-77
2021/06/02 09:32:59;;;;;;;1.85;1.00;;;;;;;35.44;14.22;98690.25;4954009;28;20023;-76
2021/06/02 09:35:35;;;;;;;3.20;1.35;;;;;;;34.77;14.38;98698.41;4952942;28;20026;-77
2021/06/02 09:38:01;;;;;;;2.00;1.17;;;;;;;35.36;14.09;98693.03;4947148;29;20031;-77
2021/06/02 09:40:33;;;;;;;4.90;1.10;;;;;;;35.60;14.00;98691.06;4952776;28;20388;-77
2021/06/02 09:42:59;;;;;;;1.65;1.00;;;;;;;35.37;13.98;98696.56;4951933;28;20106;-77
2021/06/02 09:45:26;;;;;;;2.60;1.40;;;;;;;35.12;14.67;98686.09;4951784;28;20126;-77
2021/06/02 09:48:04;;;;;;;4.05;1.35;;;;;;;32.56;16.10;98679.13;4951513;29;20051;-76
2021/06/02 09:50:32;;;;;;;1.53;1.40;;;;;;;33.39;15.76;98687.59;4953094;29;20027;-77
2021/06/02 09:52:59;;;;;;;7.05;1.50;;;;;;;34.96;15.09;98676.34;4945595;28;20051;-77
2021/06/02 09:55:39;;;;;;;4.15;1.70;;;;;;;35.18;14.23;98684.50;4952661;28;20027;-77
2021/06/02 09:58:07;;;;;;;2.65;0.98;;;;;;;35.47;14.89;98684.47;4952131;28;20063;-77
2021/06/02 10:00:34;;;;;;;2.05;1.20;;;;;;;36.19;13.85;98688.16;4953706;28;20646;-77
2021/06/02 10:03:03;;;;;;;1.50;0.98;;;;;;;33.34;16.90;98689.97;4947974;28;20055;-77
2021/06/02 10:05:35;;;;;;;1.20;1.10;;;;;;;32.94;16.88;98683.75;4950870;28;20031;-77
2021/06/02 10:08:00;;;;;;;2.85;1.10;;;;;;;34.11;14.65;98681.16;4947317;28;20031;-77
2021/06/02 10:10:26;;;;;;;2.20;1.15;;;;;;;32.21;17.25;98679.28;4953300;28;20024;-77
2021/06/02 10:13:12;;;;;;;2.88;1.60;;;;;;;35.92;14.45;98671.69;4955758;28;20500;-77
2021/06/02 10:15:42;;;;;;;2.17;1.20;;;;;;;34.81;15.59;98686.22;4951798;28;20111;-77
2021/06/02 10:18:27;;;;;;;1.10;1.00;;;;;;;36.63;13.58;98674.41;4952844;28;20480;-77
2021/06/02 10:21:00;;;;;;;5.07;1.13;;;;;;;36.83;13.78;98679.94;4951480;29;20102;-76
2021/06/02 10:23:27;;;;;;;2.28;0.90;;;;;;;35.91;15.74;98680.81;4952269;28;20469;-77
2021/06/02 10:25:53;;;;;;;6.88;1.13;;;;;;;35.72;15.31;98681.44;4947783;28;20032;-74
2021/06/02 10:28:18;;;;;;;3.03;1.10;;;;;;;36.68;13.81;98671.13;4953502;28;20070;-75
2021/06/02 10:30:47;;;;;;;1.38;1.00;;;;;;;35.31;14.28;98686.53;4977228;23;20473;-77
2021/06/02 10:33:13;;;;;;;;;;;;;;;36.13;14.16;98680.84;4934869;29;20473;-78
2021/06/02 10:35:39;;;;;;;1.95;1.45;;;;;;;34.56;16.50;98685.66;4929356;29;19970;-79
2021/06/02 10:38:06;;;;;;;1.40;1.17;;;;;;;35.74;13.93;98676.72;4924504;29;20036;-78
2021/06/02 10:40:35;;;;;;;6.95;1.90;;;;;;;34.21;15.20;98670.97;4924726;29;20464;-72
2021/06/02 10:43:09;;;;;;;5.30;0.93;;;;;;;33.83;15.66;98678.97;4926924;29;20456;-72
2021/06/02 10:45:43;;;;;;;1.55;1.13;;;;;;;33.45;17.17;98680.72;4923794;29;20059;-73
2021/06/02 10:48:09;;;;;;;4.40;1.27;;;;;;;33.84;15.57;98686.00;4926654;29;20023;-73
2021/06/02 10:50:39;;;;;;;3.28;1.65;;;;;;;34.60;15.68;98680.75;4923623;29;20098;-73
2021/06/02 10:53:17;;;;;;;2.35;1.33;;;;;;;34.32;15.23;98688.53;4923045;29;20515;-73
2021/06/02 10:55:43;;;;;;;1.70;1.02;;;;;;;33.84;14.58;98699.44;4924669;29;20493;-73
2021/06/02 10:58:14;;;;;;;4.40;1.30;;;;;;;32.53;16.46;98684.81;4926938;29;20027;-73
2021/06/02 11:00:40;;;;;;;1.55;1.00;;;;;;;35.13;15.14;98686.94;4925364;29;20046;-73
2021/06/02 11:03:28;;;;;;;2.00;1.30;;;;;;;36.18;13.67;98681.09;4923025;29;20588;-73
2021/06/02 11:06:06;;;;;;;1.50;1.10;;;;;;;33.96;16.48;98679.25;4926607;29;20123;-73
2021/06/02 11:08:50;;;;;;;3.88;1.20;;;;;;;34.97;15.06;98678.03;4926368;29;20047;-73
2021/06/02 11:11:24;;;;;;;3.50;1.60;;;;;;;34.51;14.97;98683.50;4922762;29;20034;-73
2021/06/02 11:14:19;;;;;;;3.03;1.15;;;;;;;34.71;14.80;98677.59;4925405;29;20039;-73
2021/06/02 11:16:53;;;;;;;2.30;1.25;;;;;;;33.21;15.27;98676.25;4924918;29;20704;-73
2021/06/02 11:19:21;;;;;;;6.80;1.30;;;;;;;33.13;15.25;98679.00;4926115;29;20043;-74
2021/06/02 11:21:53;;;;;;;3.97;1.00;;;;;;;33.78;14.87;98665.22;4924861;29;20071;-73
2021/06/02 11:24:30;;;;;;;1.10;1.00;;;;;;;33.39;15.91;98676.84;4924224;29;21355;-73
2021/06/02 11:27:11;;;;;;;1.10;0.98;;;;;;;32.77;15.81;98678.56;4922136;29;20035;-73
2021/06/02 11:29:52;;;;;;;1.52;1.00;;;;;;;30.60;17.26;98690.03;4924627;29;20075;-73
2021/06/02 11:32:17;;;;;;;1.08;0.98;;;;;;;29.34;17.34;98688.28;4926646;29;20028;-73
2021/06/02 11:34:44;;;;;;;1.30;1.20;;;;;;;30.84;17.24;98681.34;4924353;29;20386;-73
2021/06/02 11:37:13;;;;;;;1.38;1.10;;;;;;;30.20;17.08;98682.53;4922344;29;20268;-73
2021/06/02 11:39:38;;;;;;;3.08;0.95;;;;;;;31.09;17.58;98685.00;4924620;29;20077;-73
2021/06/02 11:42:05;;;;;;;1.08;0.98;;;;;;;33.04;14.76;98685.41;4925451;29;20055;-73
2021/06/02 11:44:32;;;;;;;1.25;1.00;;;;;;;30.67;16.76;98684.91;4921415;29;20135;-73
2021/06/02 11:46:58;;;;;;;1.10;1.00;;;;;;;30.07;16.79;98684.72;4925906;29;21450;-73
2021/06/02 11:49:30;;;;;;;1.85;1.20;;;;;;;30.57;17.60;98684.16;4923315;29;20071;-73
2021/06/02 11:52:05;;;;;;;1.77;1.02;;;;;;;30.18;18.97;98680.03;4924731;29;20105;-73
2021/06/02 11:54:52;;;;;;;1.60;1.10;;;;;;;29.52;19.92;98692.84;4922947;29;20027;-73
2021/06/02 11:57:24;;;;;;;3.42;1.45;;;;;;;29.79;20.17;98682.16;4923256;29;20043;-73
2021/06/02 11:59:50;;;;;;;1.85;1.00;;;;;;;28.86;17.41;98685.81;4921715;29;20447;-73
2021/06/02 12:02:15;;;;;;;1.98;1.10;;;;;;;28.12;19.15;98690.00;4924878;29;20036;-73
2021/06/02 12:04:41;;;;;;;3.00;1.13;;;;;;;28.88;19.14;98689.19;4923487;29;20027;-73
2021/06/02 12:07:23;;;;;;;1.98;1.33;;;;;;;28.55;19.50;98687.88;4924911;29;20032;-73
2021/06/02 12:09:57;;;;;;;5.55;1.60;;;;;;;28.38;19.94;98690.31;4923539;29;20121;-73
2021/06/02 12:12:24;;;;;;;1.67;1.20;;;;;;;28.29;20.21;98683.13;4921733;29;20024;-73
2021/06/02 12:14:53;;;;;;;1.80;1.20;;;;;;;28.34;20.13;98691.56;4921095;29;20032;-72
2021/06/02 12:17:25;;;;;;;4.03;1.27;;;;;;;28.10;20.55;98691.97;4924902;29;21557;-72
2021/06/02 12:19:50;;;;;;;1.95;1.08;;;;;;;28.33;19.88;98683.66;4922419;29;20043;-72
2021/06/02 12:22:20;;;;;;;4.78;1.15;;;;;;;27.74;20.26;98685.50;4922187;29;20040;-73
2021/06/02 12:25:09;;;;;;;2.17;1.02;;;;;;;26.98;19.17;98692.22;4921024;29;20043;-73
2021/06/02 12:27:44;;;;;;;1.17;1.08;;;;;;;27.27;19.89;98690.56;4924284;29;21462;-73
2021/06/02 12:30:22;;;;;;;6.53;1.23;;;;;;;26.40;20.45;98688.25;4922715;29;21200;-72
2021/06/02 12:32:56;;;;;;;4.72;1.58;;;;;;;27.62;20.88;98691.91;4923524;29;20452;-72
2021/06/02 12:35:38;;;;;;;3.33;1.10;;;;;;;27.99;19.02;98688.59;4922490;29;20055;-72
2021/06/02 12:38:26;;;;;;;3.35;1.58;;;;;;;28.14;19.64;98687.19;4923547;29;20058;-73
2021/06/02 12:40:56;;;;;;;3.03;1.30;;;;;;;27.66;20.17;98677.34;4924939;29;20036;-72
2021/06/02 12:43:31;;;;;;;3.53;1.35;;;;;;;28.37;19.90;98680.59;4924095;29;20094;-72
2021/06/02 12:46:10;;;;;;;4.70;1.38;;;;;;;28.13;18.79;98688.16;4920462;29;20508;-73
2021/06/02 12:48:36;;;;;;;1.33;1.00;;;;;;;27.51;19.28;98686.69;4923816;29;21310;-72
2021/06/02 12:51:02;;;;;;;7.50;1.52;;;;;;;28.20;20.27;98683.13;4923155;29;20036;-73
2021/06/02 12:53:36;;;;;;;5.03;1.80;;;;;;;28.00;19.26;98683.13;4924576;29;20039;-72
2021/06/02 12:56:02;;;;;;;3.35;1.40;;;;;;;27.80;19.01;98684.97;4921913;28;20032;-72
2021/06/02 12:58:31;;;;;;;3.00;1.50;;;;;;;27.77;19.36;98684.38;4921128;29;20429;-72
2021/06/02 13:01:02;;;;;;;2.17;1.00;;;;;;;27.50;19.39;98680.50;4923259;29;20031;-72
2021/06/02 13:03:28;;;;;;;1.38;1.20;;;;;;;27.78;19.89;98675.41;4923988;29;20498;-73
2021/06/02 13:05:55;;;;;;;4.78;1.35;;;;;;;28.01;18.88;98681.31;4924027;29;20087;-72
2021/06/02 13:08:21;;;;;;;4.47;1.33;;;;;;;27.75;18.81;98679.19;4924597;29;20032;-72
2021/06/02 13:10:47;;;;;;;10.95;6.68;;;;;;;27.90;19.39;98684.97;4921616;29;20036;-72
2021/06/02 13:13:14;;;;;;;1.35;1.10;;;;;;;27.82;19.72;98674.16;4924054;29;20034;-73
2021/06/02 13:15:39;;;;;;;3.83;1.40;;;;;;;28.18;19.77;98685.91;4921813;29;20066;-72
2021/06/02 13:18:07;;;;;;;3.43;1.00;;;;;;;28.13;19.43;98677.50;4922809;29;20114;-73
2021/06/02 13:20:40;;;;;;;1.50;1.00;;;;;;;28.31;18.53;98680.31;4923944;29;20366;-72
2021/06/02 13:23:08;;;;;;;2.72;0.90;;;;;;;28.33;18.52;98681.81;4921757;29;20027;-72
2021/06/02 13:25:34;;;;;;;2.08;0.98;;;;;;;28.40;18.38;98680.31;4921301;29;20031;-73
2021/06/02 13:28:00;;;;;;;1.20;1.10;;;;;;;28.27;18.70;98678.91;4922467;29;20075;-73
2021/06/02 13:30:39;;;;;;;1.40;1.30;;;;;;;28.14;18.43;98674.72;4922534;29;20043;-72
2021/06/02 13:33:05;;;;;;;3.47;0.90;;;;;;;28.13;19.33;98677.50;4923877;29;20119;-72
2021/06/02 13:35:30;;;;;;;3.42;1.30;;;;;;;27.74;17.90;98672.19;4922227;29;20032;-72
2021/06/02 13:37:55;;;;;;;2.22;0.70;;;;;;;27.44;17.79;98674.91;4923048;29;20111;-73
2021/06/02 13:40:27;;;;;;;3.70;1.25;;;;;;;27.89;17.31;98678.78;4922821;29;20042;-72
2021/06/02 13:43:08;;;;;;;3.05;1.00;;;;;;;26.79;19.47;98677.88;4924943;29;20115;-72
2021/06/02 13:45:36;;;;;;;9.35;1.10;;;;;;;27.47;18.17;98679.97;4921784;29;20039;-73
2021/06/02 13:48:36;;;;;;;1.80;0.98;;;;;;;28.07;18.50;98672.75;4923347;29;20032;-72
2021/06/02 13:51:17;;;;;;;0.90;0.90;;;;;;;28.21;18.35;98674.16;4922844;29;20110;-73
2021/06/02 13:54:16;;;;;;;1.13;1.00;;;;;;;28.00;17.48;98671.66;4925002;29;20523;-73
2021/06/02 13:56:45;;;;;;;2.47;0.90;;;;;;;27.48;19.16;98681.66;4921442;29;20035;-72
2021/06/02 13:59:13;;;;;;;6.68;1.52;;;;;;;28.00;17.31;98671.66;4921360;29;20039;-72
2021/06/02 14:01:41;;;;;;;2.25;1.00;;;;;;;27.72;16.67;98671.50;4922870;29;20055;-71
2021/06/02 14:04:07;;;;;;;1.58;0.80;;;;;;;27.36;17.86;98668.44;4922191;29;20128;-71
2021/06/02 14:06:33;;;;;;;1.55;1.25;;;;;;;27.65;18.15;98670.31;4920238;29;20047;-77
2021/06/02 14:08:58;;;;;;;0.70;0.63;;;;;;;28.08;18.54;98669.94;4923663;29;20086;-77
2021/06/02 14:11:26;;;;;;;1.00;0.90;;;;;;;27.31;19.65;98675.97;4925809;29;20035;-77
2021/06/02 14:13:52;;;;;;;2.03;0.80;;;;;;;27.87;18.87;98666.59;4928127;29;20063;-78
2021/06/02 14:16:20;;;;;;;5.25;1.30;;;;;;;28.32;18.79;98666.81;4926366;29;20024;-77
2021/06/02 14:18:49;;;;;;;2.20;0.93;;;;;;;28.39;19.02;98668.00;4926673;29;20051;-77
2021/06/02 14:21:15;;;;;;;;;;;;;;;27.80;19.70;98666.31;4927025;29;20032;-77
2021/06/02 14:23:41;;;;;;;0.73;0.73;;;;;;;28.13;19.35;98674.84;4924813;29;19978;-77
2021/06/02 14:26:06;;;;;;;3.30;1.00;;;;;;;28.35;19.68;98671.91;4927379;29;20299;-77
2021/06/02 14:28:32;;;;;;;0.77;0.73;;;;;;;28.71;19.63;98677.44;4921236;29;20035;-77
2021/06/02 14:30:58;;;;;;;3.28;1.20;;;;;;;28.67;20.05;98681.38;4919199;29;20041;-77
2021/06/02 14:33:23;;;;;;;1.05;0.90;;;;;;;28.34;19.78;98675.56;4918731;29;20042;-77
2021/06/02 14:35:49;;;;;;;1.92;1.40;;;;;;;28.32;19.88;98676.66;4918391;29;20016;-77
2021/06/02 14:38:15;;;;;;;1.30;0.90;;;;;;;28.49;19.48;98675.13;4919975;29;20337;-77
2021/06/02 14:40:40;;;;;;;3.22;2.78;;;;;;;28.40;20.31;98669.66;4921204;29;20141;-77
2021/06/02 14:43:06;;;;;;;1.55;0.93;;;;;;;28.17;19.51;98674.41;4919609;29;20058;-77
2021/06/02 14:45:32;;;;;;;0.80;0.80;;;;;;;28.41;19.89;98665.16;4925296;29;20042;-77
2021/06/02 14:47:57;;;;;;;1.08;0.98;;;;;;;28.58;19.98;98668.94;4924776;29;20090;-77
2021/06/02 14:50:24;;;;;;;0.65;0.65;;;;;;;28.68;19.42;98673.25;4923795;29;20103;-77
2021/06/02 14:52:55;;;;;;;3.95;1.20;;;;;;;28.66;18.75;98661.88;4924559;29;20032;-77
2021/06/02 14:55:21;;;;;;;4.32;0.98;;;;;;;28.89;18.27;98670.34;4918927;29;20036;-77
2021/06/02 14:57:46;;;;;;;1.48;1.02;;;;;;;28.90;18.40;98674.69;4919569;29;20020;-77
2021/06/02 15:00:12;;;;;;;4.35;0.90;;;;;;;29.02;17.60;98671.91;4920740;29;20087;-77
2021/06/02 15:02:38;;;;;;;2.95;0.90;;;;;;;28.91;17.99;98672.88;4919441;29;20473;-77
2021/06/02 15:05:03;;;;;;;3.92;1.17;;;;;;;28.83;19.78;98665.63;4920331;29;20032;-77
2021/06/02 15:07:29;;;;;;;1.70;1.15;;;;;;;28.82;17.85;98666.63;4922765;29;20453;-77
2021/06/02 15:09:54;;;;;;;4.55;3.00;;;;;;;28.99;18.82;98658.84;4927783;29;20032;-77
2021/06/02 15:12:23;;;;;;;4.15;0.98;;;;;;;28.23;18.69;98667.69;4928019;29;20083;-77
2021/06/02 15:14:48;;;;;;;;;;;;;;;28.06;19.40;98665.75;4922267;29;20031;-77
2021/06/02 15:17:14;;;;;;;1.75;0.90;;;;;;;28.36;20.15;98668.25;4927595;29;19919;-77
2021/06/02 15:19:40;;;;;;;1.30;1.20;;;;;;;27.21;20.10;98669.78;4926909;29;20401;-77
2021/06/02 15:22:05;;;;;;;3.28;1.20;;;;;;;28.34;19.54;98658.75;4921679;29;20055;-77
2021/06/02 15:24:31;;;;;;;1.15;1.05;;;;;;;28.15;19.55;98665.75;4921469;29;20063;-77
2021/06/02 15:27:03;;;;;;;1.73;1.20;;;;;;;28.61;18.96;98655.28;4922260;29;20115;-77
2021/06/02 15:29:42;;;;;;;11.23;9.00;;;;;;;28.64;18.80;98655.84;4927194;29;20086;-77
2021/06/02 15:32:08;;;;;;;1.58;0.90;;;;;;;28.71;20.44;98650.75;4927505;29;20488;-77
2021/06/02 15:34:34;;;;;;;0.93;0.90;;;;;;;28.94;19.56;98636.09;4927089;29;20035;-77
2021/06/02 15:36:59;;;;;;;3.88;1.27;;;;;;;28.61;18.86;98644.63;4927224;29;20020;-77
2021/06/02 15:39:25;;;;;;;4.68;1.02;;;;;;;28.64;19.03;98649.69;4923360;29;20050;-76
2021/06/02 15:41:52;;;;;;;1.08;0.98;;;;;;;28.00;19.94;98645.00;4927376;29;20035;-76
2021/06/02 15:44:17;;;;;;;3.78;1.10;;;;;;;27.52;20.45;98645.78;4927255;29;20035;-76
2021/06/02 15:46:43;;;;;;;2.03;1.10;;;;;;;28.13;20.13;98640.22;4927270;29;20039;-76
2021/06/02 15:49:09;;;;;;;2.60;0.82;;;;;;;27.81;20.36;98633.38;4936944;29;20035;-76
2021/06/02 15:51:37;;;;;;;1.92;1.50;;;;;;;26.79;20.53;98638.00;4921944;29;20027;-76
2021/06/02 15:54:02;;;;;;;1.60;1.10;;;;;;;27.25;20.81;98639.28;4924790;29;20556;-79
2021/06/02 15:56:29;;;;;;;1.48;0.90;;;;;;;27.75;21.49;98636.56;4920974;29;20106;-76
2021/06/02 15:58:57;;;;;;;1.30;1.20;;;;;;;28.24;18.99;98637.41;4923014;29;20402;-76
2021/06/02 16:01:22;;;;;;;1.30;0.95;;;;;;;27.56;20.28;98631.19;4926981;29;20108;-75
2021/06/02 16:03:48;;;;;;;5.55;1.67;;;;;;;28.32;19.19;98639.34;4927262;29;20039;-76
2021/06/02 16:06:13;;;;;;;6.00;1.23;;;;;;;27.87;18.85;98629.31;4926589;29;20031;-76
2021/06/02 16:08:38;;;;;;;2.03;0.90;;;;;;;28.19;19.30;98631.66;4926292;29;20032;-78
2021/06/02 16:11:04;;;;;;;1.48;1.20;;;;;;;28.35;19.19;98631.94;4921090;29;20560;-78